sensor_id;sensor_type;location;lat;lon;timestamp;P1;durP1;ratioP1;P2;durP2;ratioP2
70122;SDS011;57489;37.404;24.920;2023-10-13T00:00:55;6.50;;;2.63;;
70122;SDS011;57489;37.404;24.920;2023-10-13T00:05:58;6.63;;;2.30;;
70122;SDS011;57489;37.404;24.920;2023-10-13T00:11:04;6.57;;;2.90;;
70122;SDS011;57489;37.404;24.920;2023-10-13T00:16:10;7.30;;;2.40;;
70122;SDS011;57489;37.404;24.920;2023-10-13T00:21:17;6.55;;;2.10;;
70122;SDS011;57489;37.404;24.920;2023-10-13T00:26:33;5.30;;;2.53;;
70122;SDS011;57489;37.404;24.920;2023-10-13T00:31:37;10.37;;;2.77;;
70122;SDS011;57489;37.404;24.920;2023-10-13T00:36:43;7.40;;;2.53;;
70122;SDS011;57489;37.404;24.920;2023-10-13T00:41:50;5.18;;;2.28;;
70122;SDS011;57489;37.404;24.920;2023-10-13T00:46:54;6.03;;;2.30;;
70122;SDS011;57489;37.404;24.920;2023-10-13T00:51:57;6.17;;;1.80;;
70122;SDS011;57489;37.404;24.920;2023-10-13T00:57:01;6.30;;;2.25;;
70122;SDS011;57489;37.404;24.920;2023-10-13T01:02:12;4.88;;;1.65;;
70122;SDS011;57489;37.404;24.920;2023-10-13T01:07:28;6.90;;;2.20;;
70122;SDS011;57489;37.404;24.920;2023-10-13T01:12:32;6.43;;;2.35;;
70122;SDS011;57489;37.404;24.920;2023-10-13T01:17:35;5.95;;;2.08;;
70122;SDS011;57489;37.404;24.920;2023-10-13T01:22:38;6.10;;;2.33;;
70122;SDS011;57489;37.404;24.920;2023-10-13T01:27:45;6.23;;;2.30;;
70122;SDS011;57489;37.404;24.920;2023-10-13T01:32:49;5.07;;;2.05;;
70122;SDS011;57489;37.404;24.920;2023-10-13T01:37:53;5.60;;;1.80;;
70122;SDS011;57489;37.404;24.920;2023-10-13T01:42:57;5.60;;;2.13;;
70122;SDS011;57489;37.404;24.920;2023-10-13T01:48:00;8.30;;;3.03;;
70122;SDS011;57489;37.404;24.920;2023-10-13T01:53:04;6.70;;;1.90;;
70122;SDS011;57489;37.404;24.920;2023-10-13T01:58:14;5.63;;;2.00;;
70122;SDS011;57489;37.404;24.920;2023-10-13T02:03:17;5.22;;;2.08;;
70122;SDS011;57489;37.404;24.920;2023-10-13T02:08:21;4.72;;;1.70;;
70122;SDS011;57489;37.404;24.920;2023-10-13T02:13:27;6.17;;;1.87;;
70122;SDS011;57489;37.404;24.920;2023-10-13T02:18:30;7.30;;;2.60;;
70122;SDS011;57489;37.404;24.920;2023-10-13T02:23:34;4.80;;;2.03;;
70122;SDS011;57489;37.404;24.920;2023-10-13T02:28:45;5.38;;;1.92;;
70122;SDS011;57489;37.404;24.920;2023-10-13T02:33:51;6.53;;;1.77;;
70122;SDS011;57489;37.404;24.920;2023-10-13T02:38:54;6.03;;;2.10;;
70122;SDS011;57489;37.404;24.920;2023-10-13T02:43:59;3.72;;;1.58;;
70122;SDS011;57489;37.404;24.920;2023-10-13T02:49:06;4.13;;;1.87;;
70122;SDS011;57489;37.404;24.920;2023-10-13T02:54:11;5.40;;;2.10;;
70122;SDS011;57489;37.404;24.920;2023-10-13T02:59:19;5.63;;;1.98;;
70122;SDS011;57489;37.404;24.920;2023-10-13T03:04:34;5.63;;;1.83;;
70122;SDS011;57489;37.404;24.920;2023-10-13T03:09:39;5.87;;;2.23;;
70122;SDS011;57489;37.404;24.920;2023-10-13T03:14:51;5.28;;;1.88;;
70122;SDS011;57489;37.404;24.920;2023-10-13T03:19:57;4.40;;;1.77;;
70122;SDS011;57489;37.404;24.920;2023-10-13T03:24:59;4.87;;;2.33;;
70122;SDS011;57489;37.404;24.920;2023-10-13T03:30:07;4.25;;;1.63;;
70122;SDS011;57489;37.404;24.920;2023-10-13T03:35:14;5.00;;;2.17;;
70122;SDS011;57489;37.404;24.920;2023-10-13T03:40:24;3.50;;;1.70;;
70122;SDS011;57489;37.404;24.920;2023-10-13T03:45:37;5.70;;;1.73;;
70122;SDS011;57489;37.404;24.920;2023-10-13T03:50:42;5.88;;;1.70;;
70122;SDS011;57489;37.404;24.920;2023-10-13T03:55:48;5.17;;;2.10;;
70122;SDS011;57489;37.404;24.920;2023-10-13T04:01:09;3.73;;;1.93;;
70122;SDS011;57489;37.404;24.920;2023-10-13T04:06:14;4.90;;;2.00;;
70122;SDS011;57489;37.404;24.920;2023-10-13T04:11:18;4.75;;;1.80;;
70122;SDS011;57489;37.404;24.920;2023-10-13T04:16:40;4.57;;;1.97;;
70122;SDS011;57489;37.404;24.920;2023-10-13T04:21:52;3.58;;;1.95;;
70122;SDS011;57489;37.404;24.920;2023-10-13T04:26:59;4.90;;;1.77;;
70122;SDS011;57489;37.404;24.920;2023-10-13T04:32:17;5.20;;;1.87;;
70122;SDS011;57489;37.404;24.920;2023-10-13T04:37:28;4.47;;;1.55;;
70122;SDS011;57489;37.404;24.920;2023-10-13T04:42:33;5.90;;;2.00;;
70122;SDS011;57489;37.404;24.920;2023-10-13T04:47:51;5.97;;;1.97;;
70122;SDS011;57489;37.404;24.920;2023-10-13T04:52:57;9.53;;;2.73;;
70122;SDS011;57489;37.404;24.920;2023-10-13T04:58:03;11.48;;;3.53;;
70122;SDS011;57489;37.404;24.920;2023-10-13T05:03:23;6.72;;;2.60;;
70122;SDS011;57489;37.404;24.920;2023-10-13T05:08:39;11.93;;;3.00;;
70122;SDS011;57489;37.404;24.920;2023-10-13T05:13:58;9.75;;;3.05;;
70122;SDS011;57489;37.404;24.920;2023-10-13T05:19:28;7.57;;;3.00;;
70122;SDS011;57489;37.404;24.920;2023-10-13T05:24:47;11.27;;;2.50;;
70122;SDS011;57489;37.404;24.920;2023-10-13T05:30:07;8.07;;;2.67;;
70122;SDS011;57489;37.404;24.920;2023-10-13T05:35:30;10.38;;;3.92;;
70122;SDS011;57489;37.404;24.920;2023-10-13T05:40:53;12.73;;;4.10;;
70122;SDS011;57489;37.404;24.920;2023-10-13T05:46:14;13.93;;;4.23;;
70122;SDS011;57489;37.404;24.920;2023-10-13T05:51:37;9.55;;;3.85;;
70122;SDS011;57489;37.404;24.920;2023-10-13T05:56:58;8.95;;;2.80;;
70122;SDS011;57489;37.404;24.920;2023-10-13T06:02:17;8.40;;;2.30;;
70122;SDS011;57489;37.404;24.920;2023-10-13T06:07:39;7.82;;;2.17;;
70122;SDS011;57489;37.404;24.920;2023-10-13T06:12:55;5.55;;;2.40;;
70122;SDS011;57489;37.404;24.920;2023-10-13T06:18:17;9.43;;;2.17;;
70122;SDS011;57489;37.404;24.920;2023-10-13T06:23:38;5.03;;;1.80;;
70122;SDS011;57489;37.404;24.920;2023-10-13T06:28:57;6.22;;;2.08;;
70122;SDS011;57489;37.404;24.920;2023-10-13T06:34:00;5.43;;;1.73;;
70122;SDS011;57489;37.404;24.920;2023-10-13T06:39:05;5.80;;;2.10;;
70122;SDS011;57489;37.404;24.920;2023-10-13T06:44:41;6.47;;;2.40;;
70122;SDS011;57489;37.404;24.920;2023-10-13T06:49:45;5.70;;;2.20;;
70122;SDS011;57489;37.404;24.920;2023-10-13T06:54:49;4.85;;;2.08;;
70122;SDS011;57489;37.404;24.920;2023-10-13T06:59:53;4.53;;;1.75;;
70122;SDS011;57489;37.404;24.920;2023-10-13T07:04:56;5.07;;;1.80;;
70122;SDS011;57489;37.404;24.920;2023-10-13T07:10:08;5.95;;;2.17;;
70122;SDS011;57489;37.404;24.920;2023-10-13T07:15:13;5.28;;;1.90;;
70122;SDS011;57489;37.404;24.920;2023-10-13T07:20:20;5.87;;;2.27;;
70122;SDS011;57489;37.404;24.920;2023-10-13T07:25:33;6.30;;;1.90;;
70122;SDS011;57489;37.404;24.920;2023-10-13T07:30:39;7.32;;;2.35;;
70122;SDS011;57489;37.404;24.920;2023-10-13T07:35:59;6.77;;;1.87;;
70122;SDS011;57489;37.404;24.920;2023-10-13T07:41:10;7.20;;;2.50;;
70122;SDS011;57489;37.404;24.920;2023-10-13T07:46:17;10.68;;;2.25;;
70122;SDS011;57489;37.404;24.920;2023-10-13T07:51:24;6.68;;;2.28;;
70122;SDS011;57489;37.404;24.920;2023-10-13T07:56:27;5.23;;;2.07;;
70122;SDS011;57489;37.404;24.920;2023-10-13T08:01:32;5.35;;;2.38;;
70122;SDS011;57489;37.404;24.920;2023-10-13T08:06:35;7.38;;;2.33;;
70122;SDS011;57489;37.404;24.920;2023-10-13T08:11:37;4.30;;;2.00;;
70122;SDS011;57489;37.404;24.920;2023-10-13T08:16:41;5.60;;;1.83;;
70122;SDS011;57489;37.404;24.920;2023-10-13T08:21:52;6.45;;;2.50;;
70122;SDS011;57489;37.404;24.920;2023-10-13T08:26:57;5.13;;;2.20;;
70122;SDS011;57489;37.404;24.920;2023-10-13T08:32:15;9.70;;;2.50;;
70122;SDS011;57489;37.404;24.920;2023-10-13T08:37:31;7.72;;;2.50;;
70122;SDS011;57489;37.404;24.920;2023-10-13T08:42:46;5.53;;;2.45;;
70122;SDS011;57489;37.404;24.920;2023-10-13T08:48:11;4.73;;;1.83;;
70122;SDS011;57489;37.404;24.920;2023-10-13T08:53:16;7.15;;;2.15;;
70122;SDS011;57489;37.404;24.920;2023-10-13T08:58:28;6.95;;;2.40;;
70122;SDS011;57489;37.404;24.920;2023-10-13T09:03:52;7.33;;;2.57;;
70122;SDS011;57489;37.404;24.920;2023-10-13T09:09:18;5.55;;;2.17;;
70122;SDS011;57489;37.404;24.920;2023-10-13T09:14:35;5.40;;;2.20;;
70122;SDS011;57489;37.404;24.920;2023-10-13T09:19:45;5.40;;;2.47;;
70122;SDS011;57489;37.404;24.920;2023-10-13T09:24:56;4.97;;;2.47;;
70122;SDS011;57489;37.404;24.920;2023-10-13T09:30:03;5.50;;;2.25;;
70122;SDS011;57489;37.404;24.920;2023-10-13T09:35:11;6.32;;;2.58;;
70122;SDS011;57489;37.404;24.920;2023-10-13T09:40:23;6.90;;;1.90;;
70122;SDS011;57489;37.404;24.920;2023-10-13T09:45:34;7.47;;;2.13;;
70122;SDS011;57489;37.404;24.920;2023-10-13T09:50:40;4.75;;;1.90;;
70122;SDS011;57489;37.404;24.920;2023-10-13T09:55:46;5.30;;;2.57;;
70122;SDS011;57489;37.404;24.920;2023-10-13T10:00:52;10.10;;;2.00;;
70122;SDS011;57489;37.404;24.920;2023-10-13T10:05:59;5.47;;;1.95;;
70122;SDS011;57489;37.404;24.920;2023-10-13T10:16:49;8.13;;;2.00;;
70122;SDS011;57489;37.404;24.920;2023-10-13T10:22:04;6.70;;;2.42;;
70122;SDS011;57489;37.404;24.920;2023-10-13T10:27:23;7.57;;;2.50;;
70122;SDS011;57489;37.404;24.920;2023-10-13T10:32:33;7.40;;;2.13;;
70122;SDS011;57489;37.404;24.920;2023-10-13T10:37:42;5.35;;;1.73;;
70122;SDS011;57489;37.404;24.920;2023-10-13T10:42:50;5.93;;;2.38;;
70122;SDS011;57489;37.404;24.920;2023-10-13T10:47:54;8.03;;;2.43;;
70122;SDS011;57489;37.404;24.920;2023-10-13T10:53:00;6.00;;;1.80;;
70122;SDS011;57489;37.404;24.920;2023-10-13T10:58:09;8.65;;;2.80;;
70122;SDS011;57489;37.404;24.920;2023-10-13T11:03:28;5.13;;;1.90;;
70122;SDS011;57489;37.404;24.920;2023-10-13T11:08:32;5.10;;;2.33;;
70122;SDS011;57489;37.404;24.920;2023-10-13T11:13:41;7.18;;;1.80;;
70122;SDS011;57489;37.404;24.920;2023-10-13T11:18:59;4.78;;;1.52;;
70122;SDS011;57489;37.404;24.920;2023-10-13T11:24:04;6.13;;;1.80;;
70122;SDS011;57489;37.404;24.920;2023-10-13T11:29:11;9.60;;;1.85;;
70122;SDS011;57489;37.404;24.920;2023-10-13T11:34:13;6.07;;;2.00;;
70122;SDS011;57489;37.404;24.920;2023-10-13T11:39:19;5.70;;;2.43;;
70122;SDS011;57489;37.404;24.920;2023-10-13T11:44:26;7.50;;;1.83;;
70122;SDS011;57489;37.404;24.920;2023-10-13T11:49:43;6.68;;;2.20;;
70122;SDS011;57489;37.404;24.920;2023-10-13T11:54:48;6.00;;;2.03;;
70122;SDS011;57489;37.404;24.920;2023-10-13T11:59:50;5.73;;;1.80;;
70122;SDS011;57489;37.404;24.920;2023-10-13T12:04:56;6.05;;;1.70;;
70122;SDS011;57489;37.404;24.920;2023-10-13T12:10:01;4.95;;;1.95;;
70122;SDS011;57489;37.404;24.920;2023-10-13T12:15:07;6.37;;;1.80;;
70122;SDS011;57489;37.404;24.920;2023-10-13T12:20:26;5.20;;;1.88;;
70122;SDS011;57489;37.404;24.920;2023-10-13T12:25:38;5.35;;;1.90;;
70122;SDS011;57489;37.404;24.920;2023-10-13T12:31:02;5.20;;;1.93;;
70122;SDS011;57489;37.404;24.920;2023-10-13T12:36:07;6.32;;;2.17;;
70122;SDS011;57489;37.404;24.920;2023-10-13T12:41:17;4.93;;;1.80;;
70122;SDS011;57489;37.404;24.920;2023-10-13T12:46:37;5.10;;;2.13;;
70122;SDS011;57489;37.404;24.920;2023-10-13T12:51:57;5.27;;;1.77;;
70122;SDS011;57489;37.404;24.920;2023-10-13T12:57:00;7.28;;;2.40;;
70122;SDS011;57489;37.404;24.920;2023-10-13T13:02:03;5.25;;;1.67;;
70122;SDS011;57489;37.404;24.920;2023-10-13T13:07:07;5.80;;;2.30;;
70122;SDS011;57489;37.404;24.920;2023-10-13T13:12:15;5.07;;;2.22;;
70122;SDS011;57489;37.404;24.920;2023-10-13T13:17:17;5.20;;;2.22;;
70122;SDS011;57489;37.404;24.920;2023-10-13T13:22:20;10.27;;;2.10;;
70122;SDS011;57489;37.404;24.920;2023-10-13T13:27:24;4.57;;;2.00;;
70122;SDS011;57489;37.404;24.920;2023-10-13T13:32:27;3.95;;;1.60;;
70122;SDS011;57489;37.404;24.920;2023-10-13T13:37:29;4.97;;;2.20;;
70122;SDS011;57489;37.404;24.920;2023-10-13T13:42:33;4.90;;;1.70;;
70122;SDS011;57489;37.404;24.920;2023-10-13T13:47:37;5.47;;;2.05;;
70122;SDS011;57489;37.404;24.920;2023-10-13T13:52:40;5.55;;;2.10;;
70122;SDS011;57489;37.404;24.920;2023-10-13T13:57:47;5.67;;;2.10;;
70122;SDS011;57489;37.404;24.920;2023-10-13T14:02:50;4.78;;;2.42;;
70122;SDS011;57489;37.404;24.920;2023-10-13T14:07:54;5.32;;;2.13;;
70122;SDS011;57489;37.404;24.920;2023-10-13T14:12:59;6.13;;;2.43;;
70122;SDS011;57489;37.404;24.920;2023-10-13T14:18:14;7.32;;;2.08;;
70122;SDS011;57489;37.404;24.920;2023-10-13T14:23:16;5.72;;;2.22;;
70122;SDS011;57489;37.404;24.920;2023-10-13T14:28:24;6.23;;;2.17;;
70122;SDS011;57489;37.404;24.920;2023-10-13T14:33:35;4.77;;;2.40;;
70122;SDS011;57489;37.404;24.920;2023-10-13T14:38:37;7.63;;;2.42;;
70122;SDS011;57489;37.404;24.920;2023-10-13T14:43:46;6.97;;;2.58;;
70122;SDS011;57489;37.404;24.920;2023-10-13T14:48:51;6.27;;;2.00;;
70122;SDS011;57489;37.404;24.920;2023-10-13T14:53:54;6.95;;;3.08;;
70122;SDS011;57489;37.404;24.920;2023-10-13T14:59:00;6.85;;;2.15;;
70122;SDS011;57489;37.404;24.920;2023-10-13T15:04:05;6.23;;;2.50;;
70122;SDS011;57489;37.404;24.920;2023-10-13T15:09:07;6.22;;;2.30;;
70122;SDS011;57489;37.404;24.920;2023-10-13T15:14:12;5.53;;;2.50;;
70122;SDS011;57489;37.404;24.920;2023-10-13T15:19:15;5.63;;;2.33;;
70122;SDS011;57489;37.404;24.920;2023-10-13T15:24:18;6.80;;;2.40;;
70122;SDS011;57489;37.404;24.920;2023-10-13T15:29:23;7.00;;;2.60;;
70122;SDS011;57489;37.404;24.920;2023-10-13T15:34:26;6.07;;;2.25;;
70122;SDS011;57489;37.404;24.920;2023-10-13T15:39:29;6.33;;;2.03;;
70122;SDS011;57489;37.404;24.920;2023-10-13T15:44:34;5.70;;;2.10;;
70122;SDS011;57489;37.404;24.920;2023-10-13T15:49:36;5.97;;;2.22;;
70122;SDS011;57489;37.404;24.920;2023-10-13T15:54:41;5.77;;;2.37;;
70122;SDS011;57489;37.404;24.920;2023-10-13T15:59:45;6.78;;;2.83;;
70122;SDS011;57489;37.404;24.920;2023-10-13T16:04:47;5.10;;;2.17;;
70122;SDS011;57489;37.404;24.920;2023-10-13T16:09:49;5.57;;;2.67;;
70122;SDS011;57489;37.404;24.920;2023-10-13T16:14:59;35.20;;;7.13;;
70122;SDS011;57489;37.404;24.920;2023-10-13T16:20:01;27.08;;;6.53;;
70122;SDS011;57489;37.404;24.920;2023-10-13T16:25:12;21.10;;;5.13;;
70122;SDS011;57489;37.404;24.920;2023-10-13T16:30:16;14.97;;;4.20;;
70122;SDS011;57489;37.404;24.920;2023-10-13T16:35:19;14.07;;;4.43;;
70122;SDS011;57489;37.404;24.920;2023-10-13T16:40:22;11.45;;;3.08;;
70122;SDS011;57489;37.404;24.920;2023-10-13T16:45:25;11.77;;;3.53;;
70122;SDS011;57489;37.404;24.920;2023-10-13T16:50:31;9.30;;;2.40;;
70122;SDS011;57489;37.404;24.920;2023-10-13T16:55:37;8.65;;;3.38;;
70122;SDS011;57489;37.404;24.920;2023-10-13T17:00:43;7.10;;;2.80;;
70122;SDS011;57489;37.404;24.920;2023-10-13T17:05:51;11.57;;;3.43;;
70122;SDS011;57489;37.404;24.920;2023-10-13T17:10:54;9.10;;;2.97;;
70122;SDS011;57489;37.404;24.920;2023-10-13T17:15:58;8.05;;;2.85;;
70122;SDS011;57489;37.404;24.920;2023-10-13T17:21:00;5.10;;;2.47;;
70122;SDS011;57489;37.404;24.920;2023-10-13T17:26:06;7.55;;;3.40;;
70122;SDS011;57489;37.404;24.920;2023-10-13T17:31:13;8.60;;;2.40;;
70122;SDS011;57489;37.404;24.920;2023-10-13T17:36:15;7.13;;;2.77;;
70122;SDS011;57489;37.404;24.920;2023-10-13T17:41:17;7.55;;;2.50;;
70122;SDS011;57489;37.404;24.920;2023-10-13T17:46:22;7.90;;;2.85;;
70122;SDS011;57489;37.404;24.920;2023-10-13T17:51:24;10.00;;;3.00;;
70122;SDS011;57489;37.404;24.920;2023-10-13T17:56:29;10.70;;;2.80;;
70122;SDS011;57489;37.404;24.920;2023-10-13T18:01:34;10.30;;;2.72;;
70122;SDS011;57489;37.404;24.920;2023-10-13T18:06:36;8.02;;;2.83;;
70122;SDS011;57489;37.404;24.920;2023-10-13T18:11:38;7.13;;;2.40;;
70122;SDS011;57489;37.404;24.920;2023-10-13T18:16:44;5.90;;;2.83;;
70122;SDS011;57489;37.404;24.920;2023-10-13T18:21:49;9.10;;;2.92;;
70122;SDS011;57489;37.404;24.920;2023-10-13T18:26:55;9.43;;;3.17;;
70122;SDS011;57489;37.404;24.920;2023-10-13T18:31:59;6.20;;;2.13;;
70122;SDS011;57489;37.404;24.920;2023-10-13T18:37:02;8.60;;;2.90;;
70122;SDS011;57489;37.404;24.920;2023-10-13T18:42:07;9.00;;;2.43;;
70122;SDS011;57489;37.404;24.920;2023-10-13T18:47:11;9.47;;;3.00;;
70122;SDS011;57489;37.404;24.920;2023-10-13T18:52:13;8.75;;;2.60;;
70122;SDS011;57489;37.404;24.920;2023-10-13T18:57:15;9.90;;;2.90;;
70122;SDS011;57489;37.404;24.920;2023-10-13T19:02:19;5.97;;;2.27;;
70122;SDS011;57489;37.404;24.920;2023-10-13T19:07:22;7.20;;;2.88;;
70122;SDS011;57489;37.404;24.920;2023-10-13T19:12:25;7.78;;;2.38;;
70122;SDS011;57489;37.404;24.920;2023-10-13T19:17:28;6.20;;;2.80;;
70122;SDS011;57489;37.404;24.920;2023-10-13T19:22:31;5.55;;;2.10;;
70122;SDS011;57489;37.404;24.920;2023-10-13T19:27:33;6.55;;;2.55;;
70122;SDS011;57489;37.404;24.920;2023-10-13T19:32:37;8.10;;;2.30;;
70122;SDS011;57489;37.404;24.920;2023-10-13T19:37:40;6.07;;;2.40;;
70122;SDS011;57489;37.404;24.920;2023-10-13T19:42:43;10.20;;;2.13;;
70122;SDS011;57489;37.404;24.920;2023-10-13T19:47:47;7.97;;;2.47;;
70122;SDS011;57489;37.404;24.920;2023-10-13T19:52:49;6.70;;;2.30;;
70122;SDS011;57489;37.404;24.920;2023-10-13T19:57:52;5.32;;;2.30;;
70122;SDS011;57489;37.404;24.920;2023-10-13T20:02:55;7.57;;;2.42;;
70122;SDS011;57489;37.404;24.920;2023-10-13T20:07:58;5.27;;;1.97;;
70122;SDS011;57489;37.404;24.920;2023-10-13T20:13:02;5.65;;;2.65;;
70122;SDS011;57489;37.404;24.920;2023-10-13T20:18:07;5.15;;;2.33;;
70122;SDS011;57489;37.404;24.920;2023-10-13T20:23:10;10.20;;;2.27;;
70122;SDS011;57489;37.404;24.920;2023-10-13T20:28:13;7.97;;;2.23;;
70122;SDS011;57489;37.404;24.920;2023-10-13T20:33:18;4.38;;;2.15;;
70122;SDS011;57489;37.404;24.920;2023-10-13T20:38:22;4.72;;;2.08;;
70122;SDS011;57489;37.404;24.920;2023-10-13T20:43:26;6.13;;;2.00;;
70122;SDS011;57489;37.404;24.920;2023-10-13T20:48:30;4.72;;;1.92;;
70122;SDS011;57489;37.404;24.920;2023-10-13T20:53:33;7.85;;;2.33;;
70122;SDS011;57489;37.404;24.920;2023-10-13T20:58:37;4.87;;;1.93;;
70122;SDS011;57489;37.404;24.920;2023-10-13T21:03:43;4.25;;;1.60;;
70122;SDS011;57489;37.404;24.920;2023-10-13T21:08:48;4.82;;;1.88;;
70122;SDS011;57489;37.404;24.920;2023-10-13T21:13:51;5.30;;;1.93;;
70122;SDS011;57489;37.404;24.920;2023-10-13T21:18:55;6.60;;;2.43;;
70122;SDS011;57489;37.404;24.920;2023-10-13T21:23:57;5.78;;;2.00;;
70122;SDS011;57489;37.404;24.920;2023-10-13T21:29:00;4.18;;;1.90;;
70122;SDS011;57489;37.404;24.920;2023-10-13T21:34:09;5.97;;;1.87;;
70122;SDS011;57489;37.404;24.920;2023-10-13T21:39:12;7.30;;;2.50;;
70122;SDS011;57489;37.404;24.920;2023-10-13T21:44:15;4.70;;;2.10;;
70122;SDS011;57489;37.404;24.920;2023-10-13T21:49:18;5.60;;;2.70;;
70122;SDS011;57489;37.404;24.920;2023-10-13T21:54:22;4.97;;;2.03;;
70122;SDS011;57489;37.404;24.920;2023-10-13T21:59:24;4.78;;;1.95;;
70122;SDS011;57489;37.404;24.920;2023-10-13T22:04:28;4.47;;;2.07;;
70122;SDS011;57489;37.404;24.920;2023-10-13T22:09:31;6.23;;;2.30;;
70122;SDS011;57489;37.404;24.920;2023-10-13T22:14:36;4.03;;;1.65;;
70122;SDS011;57489;37.404;24.920;2023-10-13T22:19:40;5.47;;;1.90;;
70122;SDS011;57489;37.404;24.920;2023-10-13T22:24:42;3.73;;;1.50;;
70122;SDS011;57489;37.404;24.920;2023-10-13T22:29:45;3.38;;;1.70;;
70122;SDS011;57489;37.404;24.920;2023-10-13T22:34:50;4.38;;;2.10;;
70122;SDS011;57489;37.404;24.920;2023-10-13T22:39:52;3.83;;;2.30;;
70122;SDS011;57489;37.404;24.920;2023-10-13T22:44:55;5.43;;;2.28;;
70122;SDS011;57489;37.404;24.920;2023-10-13T22:49:59;4.45;;;1.48;;
70122;SDS011;57489;37.404;24.920;2023-10-13T22:55:03;3.87;;;2.20;;
70122;SDS011;57489;37.404;24.920;2023-10-13T23:00:20;4.40;;;1.73;;
70122;SDS011;57489;37.404;24.920;2023-10-13T23:05:45;4.65;;;1.88;;
70122;SDS011;57489;37.404;24.920;2023-10-13T23:10:54;3.55;;;1.30;;
70122;SDS011;57489;37.404;24.920;2023-10-13T23:16:00;3.57;;;1.60;;
70122;SDS011;57489;37.404;24.920;2023-10-13T23:21:04;6.82;;;2.45;;
70122;SDS011;57489;37.404;24.920;2023-10-13T23:26:11;5.15;;;1.98;;
70122;SDS011;57489;37.404;24.920;2023-10-13T23:31:15;4.17;;;1.87;;
70122;SDS011;57489;37.404;24.920;2023-10-13T23:36:19;5.47;;;1.70;;
70122;SDS011;57489;37.404;24.920;2023-10-13T23:41:22;3.75;;;1.73;;
70122;SDS011;57489;37.404;24.920;2023-10-13T23:46:27;4.23;;;1.90;;
70122;SDS011;57489;37.404;24.920;2023-10-13T23:51:36;4.30;;;1.87;;
70122;SDS011;57489;37.404;24.920;2023-10-13T23:56:49;4.78;;;2.45;;
